Terminal Aerodrome Forecast
Issued by NWS North Platte, NE

Home | Current Version | Previous Version | Graphics & Text | Print | Product List | Glossary On
Versions: 1 2 3 4 5 6 7 8 9 10 11 12
000
FTUS43 KLBF 271357 AAA
TAFVTN
TAF AMD
KVTN 271357Z 2714/2812 22015KT P6SM SCT200
     FM271600 19013G20KT P6SM BKN200
     FM280000 20005KT P6SM BKN150
     FM280600 32010KT P6SM BKN100
     FM280900 34010KT P6SM SCT020=

USA.gov is the U.S. government's official web portal to all federal, state and local government web resources and services.